Time;durP1;ratioP1;P1;durP2;ratioP2;P2;SDS_P1;SDS_P2;PMS_P1;PMS_P2;Temp;Humidity;BMP_temperature;BMP_pressure;BME280_temperature;BME280_humidity;BME280_pressure;Samples;Min_cycle;Max_cycle;Signal;HPM_P1;HPM_P2
2022/12/09 00:01:13;;;;;;;23.73;11.65;;;4.70;86.50;;;;;;9173372;19;20014;-67
2022/12/09 00:04:17;;;;;;;19.73;11.13;;;4.70;86.40;;;;;;9173802;19;20473;-68
2022/12/09 00:07:22;;;;;;;21.10;11.02;;;4.70;86.50;;;;;;9172761;19;20022;-67
2022/12/09 00:10:25;;;;;;;19.92;11.52;;;4.70;86.40;;;;;;9178589;19;20011;-66
2022/12/09 00:13:31;;;;;;;22.88;11.82;;;4.70;86.40;;;;;;9178166;19;20037;-65
2022/12/09 00:16:35;;;;;;;31.48;14.30;;;4.70;86.40;;;;;;9170835;19;20025;-66
2022/12/09 00:19:39;;;;;;;29.30;14.00;;;4.70;86.30;;;;;;9176763;19;20017;-66
2022/12/09 00:22:43;;;;;;;30.35;14.63;;;4.70;86.30;;;;;;9172981;19;20496;-66
2022/12/09 00:25:46;;;;;;;;;;;4.70;86.30;;;;;;9184553;19;20463;-66
2022/12/09 00:28:53;;;;;;;20.52;11.68;;;4.70;86.30;;;;;;9184586;19;20229;-65
2022/12/09 00:31:57;;;;;;;25.90;11.80;;;4.70;86.30;;;;;;9184890;19;20018;-66
2022/12/09 00:35:03;;;;;;;20.00;10.30;;;4.70;86.20;;;;;;9181066;19;20022;-66
2022/12/09 00:38:07;;;;;;;27.65;12.68;;;4.70;86.20;;;;;;9183588;19;20019;-65
2022/12/09 00:41:11;;;;;;;21.67;11.80;;;4.70;86.20;;;;;;9184893;19;20523;-66
2022/12/09 00:44:17;;;;;;;22.00;11.82;;;4.70;86.20;;;;;;9182756;19;20475;-66
2022/12/09 00:47:21;;;;;;;21.85;11.35;;;4.70;86.20;;;;;;9184648;19;20023;-67
2022/12/09 00:50:25;;;;;;;21.65;12.18;;;4.70;86.30;;;;;;9182696;19;20022;-66
2022/12/09 00:53:29;;;;;;;24.13;12.85;;;4.70;86.20;;;;;;9182396;19;20015;-66
2022/12/09 00:56:34;;;;;;;24.90;12.95;;;4.70;86.20;;;;;;9185056;19;20017;-66
2022/12/09 00:59:39;;;;;;;25.05;12.13;;;4.70;86.10;;;;;;9184307;19;20499;-67
2022/12/09 01:02:43;;;;;;;23.27;12.95;;;4.70;86.20;;;;;;9182349;19;20022;-67
2022/12/09 01:05:48;;;;;;;23.67;12.43;;;4.70;86.10;;;;;;9182181;19;20017;-66
2022/12/09 01:08:52;;;;;;;23.88;12.48;;;4.70;86.10;;;;;;9181797;19;20476;-66
2022/12/09 01:11:57;;;;;;;26.23;14.00;;;4.70;86.10;;;;;;9181686;19;20019;-65
2022/12/09 01:15:02;;;;;;;23.27;12.68;;;4.60;86.00;;;;;;9177287;19;20019;-67
2022/12/09 01:18:07;;;;;;;24.20;13.30;;;4.70;86.10;;;;;;9183856;19;20018;-68
2022/12/09 01:21:11;;;;;;;23.73;13.80;;;4.60;86.10;;;;;;9181174;19;20817;-67
2022/12/09 01:24:16;;;;;;;25.42;14.20;;;4.60;86.10;;;;;;9181465;19;20023;-66
2022/12/09 01:27:20;;;;;;;;;;;4.60;86.10;;;;;;9183144;19;20521;-67
2022/12/09 01:30:26;;;;;;;30.85;14.02;;;4.60;86.70;;;;;;9180470;19;19910;-66
2022/12/09 01:33:30;;;;;;;26.08;14.18;;;4.60;86.10;;;;;;9182336;19;20010;-66
2022/12/09 01:36:33;;;;;;;;;;;4.60;86.10;;;;;;9180438;19;20025;-65
2022/12/09 01:39:40;;;;;;;28.67;14.98;;;4.60;86.20;;;;;;9181573;19;19915;-65
2022/12/09 01:42:43;;;;;;;30.58;15.77;;;4.60;86.10;;;;;;9179349;19;20011;-66
2022/12/09 01:45:50;;;;;;;30.63;16.35;;;4.60;86.20;;;;;;9182007;19;20019;-66
2022/12/09 01:48:53;;;;;;;30.48;17.13;;;4.60;86.20;;;;;;9181013;19;20046;-67
2022/12/09 01:52:01;;;;;;;;;;;4.60;86.20;;;;;;9182996;19;20015;-66
2022/12/09 01:55:08;;;;;;;28.13;14.93;;;4.60;86.20;;;;;;9181328;19;19915;-65
2022/12/09 01:58:12;;;;;;;35.83;17.55;;;4.60;86.20;;;;;;9179716;19;20014;-65
2022/12/09 02:01:19;;;;;;;30.65;16.55;;;4.50;86.20;;;;;;9181305;19;20018;-65
2022/12/09 02:04:23;;;;;;;34.88;17.63;;;4.50;86.20;;;;;;9180862;19;20011;-66
2022/12/09 02:07:28;;;;;;;32.20;17.58;;;4.60;86.30;;;;;;9180832;19;20464;-65
2022/12/09 02:10:32;;;;;;;32.78;17.80;;;4.50;86.20;;;;;;9179765;19;20037;-67
2022/12/09 02:13:51;;;;;;;32.03;17.85;;;4.50;86.20;;;;;;9179309;19;20014;-66
2022/12/09 02:17:15;;;;;;;33.63;17.52;;;4.50;86.20;;;;;;9175547;19;20499;-66
2022/12/09 02:20:27;;;;;;;34.65;18.65;;;4.50;86.20;;;;;;9181431;19;20490;-66
2022/12/09 02:23:39;;;;;;;30.25;17.08;;;4.50;86.30;;;;;;9177042;19;20031;-65
2022/12/09 02:26:51;;;;;;;35.28;18.50;;;4.50;86.20;;;;;;9177597;19;20022;-66
2022/12/09 02:30:04;;;;;;;31.08;17.25;;;4.50;86.30;;;;;;9181520;19;20017;-67
2022/12/09 02:33:27;;;;;;;33.88;18.67;;;4.50;86.30;;;;;;9179270;19;20026;-66
2022/12/09 02:36:38;;;;;;;38.85;19.42;;;4.50;86.30;;;;;;9180588;19;20051;-67
2022/12/09 02:39:48;;;;;;;40.17;18.48;;;4.50;86.20;;;;;;9178997;19;20023;-67
2022/12/09 02:42:52;;;;;;;33.45;18.60;;;4.50;86.20;;;;;;9176822;19;20429;-66
2022/12/09 02:45:59;;;;;;;35.83;18.77;;;4.50;86.30;;;;;;9178862;19;20787;-67
2022/12/09 02:49:04;;;;;;;34.45;18.48;;;4.40;86.20;;;;;;9177536;19;20455;-66
2022/12/09 02:52:12;;;;;;;35.58;18.98;;;4.40;86.20;;;;;;9177905;19;20038;-67
2022/12/09 02:55:18;;;;;;;32.95;18.08;;;4.40;86.30;;;;;;9178935;19;20034;-66
2022/12/09 02:58:22;;;;;;;34.92;18.40;;;4.40;86.20;;;;;;9179045;19;20025;-67
2022/12/09 03:01:36;;;;;;;36.58;20.20;;;4.40;86.20;;;;;;9178607;19;20017;-67
2022/12/09 03:04:43;;;;;;;35.88;18.63;;;4.40;86.20;;;;;;9177888;19;20019;-66
2022/12/09 03:07:56;;;;;;;35.25;17.92;;;4.40;86.20;;;;;;9179416;19;20470;-66
2022/12/09 03:11:05;;;;;;;35.47;18.27;;;4.40;86.20;;;;;;9177987;19;20081;-66
2022/12/09 03:14:13;;;;;;;33.95;18.75;;;4.40;86.30;;;;;;9179197;19;20015;-66
2022/12/09 03:17:23;;;;;;;35.05;19.40;;;4.40;86.20;;;;;;9174600;19;20021;-66
2022/12/09 03:20:31;;;;;;;33.63;18.65;;;4.30;86.20;;;;;;9177893;19;20424;-67
2022/12/09 03:23:37;;;;;;;37.10;19.50;;;4.30;86.20;;;;;;9175185;19;20083;-66
2022/12/09 03:26:43;;;;;;;34.45;18.77;;;4.30;86.20;;;;;;9179080;19;20018;-66
2022/12/09 03:29:49;;;;;;;33.85;18.75;;;4.30;86.20;;;;;;9178593;19;20026;-66
2022/12/09 03:32:55;;;;;;;37.05;18.75;;;4.30;86.20;;;;;;9177188;19;20035;-66
2022/12/09 03:36:03;;;;;;;33.72;18.25;;;4.30;86.30;;;;;;9178975;19;20042;-66
2022/12/09 03:39:13;;;;;;;35.47;19.13;;;4.20;86.20;;;;;;9180147;19;20023;-67
2022/12/09 03:42:22;;;;;;;37.03;18.58;;;4.20;86.20;;;;;;9177035;19;20830;-67
2022/12/09 03:45:26;;;;;;;36.60;19.02;;;4.20;86.20;;;;;;9178824;19;20018;-67
2022/12/09 03:48:30;;;;;;;35.88;19.38;;;4.20;86.30;;;;;;9177982;19;20022;-67
2022/12/09 03:51:38;;;;;;;34.88;18.27;;;4.10;86.20;;;;;;9175991;19;20019;-66
2022/12/09 03:54:45;;;;;;;37.53;19.38;;;4.10;86.20;;;;;;9178277;19;20018;-66
2022/12/09 03:57:53;;;;;;;36.78;19.55;;;4.10;86.20;;;;;;9177844;19;20011;-66
2022/12/09 04:00:57;;;;;;;34.72;18.02;;;4.10;86.30;;;;;;9174575;19;20037;-67
2022/12/09 04:04:01;;;;;;;36.97;18.98;;;4.10;86.30;;;;;;9173410;19;20470;-67
2022/12/09 04:07:06;;;;;;;35.85;19.02;;;4.00;86.20;;;;;;9177342;19;20011;-66
2022/12/09 04:10:12;;;;;;;33.95;18.17;;;4.10;86.30;;;;;;9177892;19;20018;-67
2022/12/09 04:13:17;;;;;;;35.10;18.25;;;4.10;86.30;;;;;;9176085;19;20022;-67
2022/12/09 04:16:20;;;;;;;;;;;4.00;86.30;;;;;;9172154;19;20029;-66
2022/12/09 04:19:24;;;;;;;41.17;19.73;;;4.10;86.30;;;;;;9175750;19;20317;-67
2022/12/09 04:22:28;;;;;;;40.90;19.70;;;4.00;86.30;;;;;;9176853;19;20023;-67
2022/12/09 04:25:34;;;;;;;37.78;18.30;;;4.00;86.30;;;;;;9177140;19;20035;-67
2022/12/09 04:28:38;;;;;;;36.72;17.88;;;4.00;86.30;;;;;;9174852;19;20019;-66
2022/12/09 04:31:42;;;;;;;;;;;4.00;86.30;;;;;;9176175;19;20026;-67
2022/12/09 04:34:46;;;;;;;39.92;19.33;;;4.00;86.30;;;;;;9177280;19;19919;-67
2022/12/09 04:37:51;;;;;;;39.40;19.63;;;4.00;86.30;;;;;;9176521;19;20391;-67
2022/12/09 04:40:57;;;;;;;35.28;18.88;;;4.00;86.30;;;;;;9176852;19;20431;-66
2022/12/09 04:44:02;;;;;;;37.00;19.88;;;4.00;86.30;;;;;;9173430;19;20025;-68
2022/12/09 04:47:06;;;;;;;41.05;20.50;;;4.00;86.30;;;;;;9174253;19;20014;-67
2022/12/09 04:50:11;;;;;;;35.67;18.50;;;4.00;86.40;;;;;;9176095;19;20022;-65
2022/12/09 04:53:15;;;;;;;39.33;19.17;;;4.00;86.40;;;;;;9173656;19;20373;-66
2022/12/09 04:56:22;;;;;;;41.08;20.88;;;3.90;86.30;;;;;;9173655;19;20086;-66
2022/12/09 04:59:27;;;;;;;40.55;20.73;;;4.00;86.40;;;;;;9175813;19;20167;-66
2022/12/09 05:02:31;;;;;;;37.72;18.48;;;3.90;86.30;;;;;;9174837;19;20025;-67
2022/12/09 05:05:35;;;;;;;36.83;19.38;;;3.90;86.40;;;;;;9175206;19;20031;-67
2022/12/09 05:08:39;;;;;;;36.30;18.35;;;3.90;86.40;;;;;;9175963;19;20078;-67
2022/12/09 05:11:45;;;;;;;37.33;19.00;;;3.90;86.40;;;;;;9176559;19;20049;-66
2022/12/09 05:14:49;;;;;;;38.85;19.83;;;3.90;86.40;;;;;;9178229;19;20048;-66
2022/12/09 05:17:53;;;;;;;41.17;19.80;;;3.90;86.40;;;;;;9181984;19;20513;-66
2022/12/09 05:20:57;;;;;;;;;;;3.90;86.40;;;;;;9184479;19;20018;-66
2022/12/09 05:24:02;;;;;;;38.70;19.83;;;3.90;86.40;;;;;;9179182;19;19918;-67
2022/12/09 05:27:09;;;;;;;39.72;19.27;;;3.90;86.40;;;;;;9182651;19;20019;-67
2022/12/09 05:30:13;;;;;;;38.58;20.48;;;3.90;86.40;;;;;;9183954;19;20033;-67
2022/12/09 05:33:18;;;;;;;39.97;19.80;;;3.90;86.40;;;;;;9183934;19;20038;-66
2022/12/09 05:36:26;;;;;;;40.50;20.92;;;3.90;86.40;;;;;;9181592;19;20018;-66
2022/12/09 05:39:30;;;;;;;48.08;20.70;;;3.90;86.40;;;;;;9183520;19;20021;-67
2022/12/09 05:42:36;;;;;;;45.22;20.23;;;3.90;86.50;;;;;;9180146;19;20064;-65
2022/12/09 05:45:45;;;;;;;38.22;19.27;;;3.90;86.40;;;;;;9182861;19;20484;-65
2022/12/09 05:48:49;;;;;;;37.17;18.77;;;3.90;86.50;;;;;;9180741;19;20388;-66
2022/12/09 05:51:53;;;;;;;38.97;20.05;;;3.90;86.50;;;;;;9180218;19;20497;-66
2022/12/09 05:54:57;;;;;;;38.17;20.80;;;3.90;86.50;;;;;;9182787;19;20014;-67
2022/12/09 05:58:03;;;;;;;;;;;3.90;86.50;;;;;;9181990;19;20376;-67
2022/12/09 06:01:08;;;;;;;39.95;19.40;;;3.90;86.40;;;;;;9179941;19;19929;-66
2022/12/09 06:04:12;;;;;;;37.38;19.95;;;3.90;86.50;;;;;;9177959;19;20082;-66
2022/12/09 06:07:16;;;;;;;43.85;21.67;;;4.00;86.50;;;;;;9181830;19;20022;-66
2022/12/09 06:10:21;;;;;;;37.08;18.73;;;3.90;86.50;;;;;;9182664;19;20033;-66
2022/12/09 06:13:27;;;;;;;43.70;19.50;;;3.90;86.50;;;;;;9178343;19;20010;-66
2022/12/09 06:16:32;;;;;;;40.35;20.38;;;4.00;86.50;;;;;;9177503;19;20031;-67
2022/12/09 06:19:36;;;;;;;41.80;20.02;;;3.90;86.50;;;;;;9181148;19;20372;-67
2022/12/09 06:22:40;;;;;;;41.97;20.40;;;4.00;86.60;;;;;;9179199;19;20021;-66
2022/12/09 06:25:45;;;;;;;40.28;19.77;;;4.00;86.50;;;;;;9180207;19;20022;-67
2022/12/09 06:28:51;;;;;;;36.58;19.33;;;4.00;86.50;;;;;;9181423;19;20049;-67
2022/12/09 06:31:56;;;;;;;40.72;18.85;;;4.00;86.60;;;;;;9181120;19;20011;-67
2022/12/09 06:35:00;;;;;;;40.17;19.75;;;4.00;86.50;;;;;;9179397;19;20029;-68
2022/12/09 06:38:04;;;;;;;46.10;23.20;;;4.00;86.60;;;;;;9182000;19;20018;-66
2022/12/09 06:41:08;;;;;;;;;;;4.00;86.60;;;;;;9182848;19;20356;-65
2022/12/09 06:44:14;;;;;;;43.47;20.33;;;4.00;86.60;;;;;;9177314;19;20375;-66
2022/12/09 06:47:26;;;;;;;42.67;20.63;;;4.00;86.50;;;;;;9181523;19;20345;-67
2022/12/09 06:50:31;;;;;;;41.97;21.95;;;4.00;86.60;;;;;;9179543;19;20094;-66
2022/12/09 06:53:35;;;;;;;46.15;21.83;;;4.00;86.50;;;;;;9175629;19;20102;-65
2022/12/09 06:56:40;;;;;;;37.30;19.92;;;4.00;86.60;;;;;;9179326;19;20026;-66
2022/12/09 06:59:46;;;;;;;50.22;21.90;;;4.10;86.60;;;;;;9181156;19;20014;-66
2022/12/09 07:02:50;;;;;;;50.58;20.88;;;4.00;86.60;;;;;;9179350;19;20396;-65
2022/12/09 07:05:54;;;;;;;45.22;22.10;;;4.00;86.60;;;;;;9178493;19;20021;-66
2022/12/09 07:09:00;;;;;;;44.13;22.23;;;4.10;86.60;;;;;;9178209;19;20034;-65
2022/12/09 07:12:05;;;;;;;53.20;24.75;;;4.10;86.60;;;;;;9177620;19;20761;-65
2022/12/09 07:15:12;;;;;;;49.15;22.38;;;4.10;86.60;;;;;;9173278;19;20026;-65
2022/12/09 07:18:17;;;;;;;46.20;22.20;;;4.10;86.60;;;;;;9174766;19;20404;-65
2022/12/09 07:21:23;;;;;;;48.85;22.58;;;4.10;86.60;;;;;;9176298;19;20483;-66
2022/12/09 07:24:27;;;;;;;49.22;21.83;;;4.10;86.60;;;;;;9171506;19;20506;-66
2022/12/09 07:27:31;;;;;;;49.08;23.02;;;4.10;86.60;;;;;;9172600;19;20015;-66
2022/12/09 07:30:39;;;;;;;44.97;21.95;;;4.10;86.60;;;;;;9175125;19;20018;-66
2022/12/09 07:33:44;;;;;;;49.72;22.27;;;4.10;86.60;;;;;;9173942;19;20031;-67
2022/12/09 07:36:47;;;;;;;48.42;22.48;;;4.10;86.60;;;;;;9177992;19;20030;-69
2022/12/09 07:39:52;;;;;;;42.78;20.50;;;4.10;86.60;;;;;;9179097;19;20022;-66
2022/12/09 07:42:58;;;;;;;;;;;4.10;86.60;;;;;;9177973;19;20460;-66
2022/12/09 07:46:08;;;;;;;42.38;20.00;;;4.10;86.60;;;;;;9177283;19;19926;-66
2022/12/09 07:49:13;;;;;;;46.20;21.55;;;4.00;86.50;;;;;;9179389;19;20030;-66
2022/12/09 07:52:18;;;;;;;45.90;20.95;;;4.00;86.60;;;;;;9176408;19;20487;-67
2022/12/09 07:55:22;;;;;;;49.20;22.50;;;4.00;86.60;;;;;;9178343;19;20014;-67
2022/12/09 07:58:26;;;;;;;46.03;22.20;;;4.00;86.60;;;;;;9177984;19;20018;-67
2022/12/09 08:01:32;;;;;;;45.83;20.85;;;3.90;86.60;;;;;;9176535;19;20015;-66
2022/12/09 08:04:36;;;;;;;43.65;21.42;;;3.90;86.60;;;;;;9174732;19;20015;-66
2022/12/09 08:07:41;;;;;;;43.38;20.25;;;3.90;86.60;;;;;;9176012;19;20038;-66
2022/12/09 08:10:48;;;;;;;45.47;21.67;;;3.90;86.60;;;;;;9177507;19;20011;-70
2022/12/09 08:13:53;;;;;;;43.60;21.60;;;3.90;86.60;;;;;;9175484;19;20030;-66
2022/12/09 08:16:59;;;;;;;45.70;19.83;;;3.80;86.50;;;;;;9172642;19;20467;-66
2022/12/09 08:20:03;;;;;;;48.50;21.17;;;3.80;86.50;;;;;;9174956;19;20029;-66
2022/12/09 08:23:08;;;;;;;45.72;21.80;;;3.80;86.60;;;;;;9175584;19;20030;-66
2022/12/09 08:26:13;;;;;;;53.20;22.73;;;3.70;86.60;;;;;;9175323;19;20011;-66
2022/12/09 08:29:18;;;;;;;45.22;19.98;;;3.70;86.60;;;;;;9175873;19;20018;-68
2022/12/09 08:32:24;;;;;;;48.00;20.80;;;3.70;86.60;;;;;;9174715;19;20131;-66
2022/12/09 08:35:37;;;;;;;49.47;22.30;;;3.70;86.60;;;;;;9175918;19;20081;-67
2022/12/09 08:38:41;;;;;;;49.38;21.58;;;3.70;86.60;;;;;;9174496;19;20018;-67
2022/12/09 08:41:46;;;;;;;47.70;22.50;;;3.70;86.60;;;;;;9176508;19;20046;-66
2022/12/09 08:44:50;;;;;;;46.53;22.35;;;3.70;86.60;;;;;;9168093;19;20015;-66
2022/12/09 08:47:59;;;;;;;52.83;22.75;;;3.60;86.60;;;;;;9179378;19;20023;-67
2022/12/09 08:51:04;;;;;;;45.08;22.33;;;3.60;86.60;;;;;;9180314;19;20010;-67
2022/12/09 08:54:08;;;;;;;45.42;22.38;;;3.60;86.60;;;;;;9178098;19;20356;-67
2022/12/09 08:57:12;;;;;;;47.35;21.60;;;3.60;86.60;;;;;;9179312;19;20014;-66
2022/12/09 09:00:18;;;;;;;43.70;20.58;;;3.60;86.60;;;;;;9181659;19;20014;-65
2022/12/09 09:03:24;;;;;;;49.10;22.08;;;3.60;86.60;;;;;;9182082;19;20014;-65
2022/12/09 09:06:28;;;;;;;43.85;21.35;;;3.60;86.60;;;;;;9181134;19;20014;-64
2022/12/09 09:09:33;;;;;;;47.67;22.00;;;3.60;86.60;;;;;;9174899;19;20041;-66
2022/12/09 09:12:37;;;;;;;48.72;22.27;;;3.60;86.60;;;;;;9178241;19;20014;-65
2022/12/09 09:15:47;;;;;;;43.30;21.48;;;3.60;86.70;;;;;;9166032;19;20046;-67
2022/12/09 09:18:53;;;;;;;47.63;22.42;;;3.50;86.60;;;;;;9174634;19;20018;-68
2022/12/09 09:21:57;;;;;;;48.55;22.50;;;3.50;87.30;;;;;;9178652;19;20014;-66
2022/12/09 09:25:02;;;;;;;47.63;22.50;;;3.50;86.60;;;;;;9178212;19;20611;-66
2022/12/09 09:28:06;;;;;;;46.47;20.75;;;3.50;86.60;;;;;;9171446;19;21000;-67
2022/12/09 09:31:14;;;;;;;54.00;24.67;;;3.50;86.70;;;;;;9165595;19;20135;-66
2022/12/09 09:34:21;;;;;;;48.30;22.05;;;3.50;86.70;;;;;;9168041;19;20048;-67
2022/12/09 09:37:25;;;;;;;45.47;22.80;;;3.50;86.60;;;;;;9165860;19;20610;-67
2022/12/09 09:40:30;;;;;;;49.78;23.00;;;3.50;86.70;;;;;;9165603;19;20054;-69
2022/12/09 09:43:38;;;;;;;49.00;22.92;;;3.50;86.70;;;;;;9160426;19;20574;-68
2022/12/09 09:46:46;;;;;;;49.83;22.65;;;3.60;86.70;;;;;;9162398;19;20388;-66
2022/12/09 09:49:56;;;;;;;55.40;22.10;;;3.60;86.80;;;;;;9172171;19;20018;-66
2022/12/09 09:53:09;;;;;;;48.22;22.38;;;3.60;86.80;;;;;;9158945;19;20368;-67
2022/12/09 09:56:27;;;;;;;52.97;23.15;;;3.60;86.70;;;;;;9166245;19;20025;-67
2022/12/09 09:59:40;;;;;;;53.90;22.73;;;3.60;86.70;;;;;;9163338;19;20018;-68
2022/12/09 10:02:58;;;;;;;48.67;21.70;;;3.60;86.70;;;;;;9168783;19;20011;-65
2022/12/09 10:06:12;;;;;;;51.83;22.88;;;3.70;86.80;;;;;;9171189;19;20055;-71
2022/12/09 10:09:22;;;;;;;49.97;21.95;;;3.70;86.70;;;;;;9163858;19;20030;-68
2022/12/09 10:12:39;;;;;;;54.53;23.00;;;3.70;86.70;;;;;;9167157;19;20014;-66
2022/12/09 10:15:49;;;;;;;43.88;19.10;;;3.70;86.70;;;;;;9160361;19;20029;-66
2022/12/09 10:19:06;;;;;;;44.42;19.33;;;3.80;86.70;;;;;;9174167;19;20018;-73
2022/12/09 10:22:22;;;;;;;49.00;21.27;;;3.80;86.70;;;;;;9174223;19;20024;-72
2022/12/09 10:25:28;;;;;;;35.67;17.60;;;3.80;86.70;;;;;;9171989;19;20026;-73
2022/12/09 10:28:36;;;;;;;41.05;18.55;;;3.80;86.60;;;;;;9169567;19;20352;-73
2022/12/09 10:31:40;;;;;;;45.03;19.23;;;3.80;86.60;;;;;;9169753;19;20019;-74
2022/12/09 10:34:44;;;;;;;42.30;16.77;;;3.90;86.70;;;;;;9171099;19;20082;-73
2022/12/09 10:37:52;;;;;;;43.88;18.13;;;3.90;86.70;;;;;;9170877;19;20030;-73
2022/12/09 10:41:03;;;;;;;38.47;17.38;;;3.90;86.60;;;;;;9176378;19;20053;-73
2022/12/09 10:44:18;;;;;;;39.83;16.20;;;3.90;86.50;;;;;;9168777;19;20033;-73
2022/12/09 10:47:26;;;;;;;40.22;16.73;;;4.00;86.50;;;;;;9173569;19;20372;-74
2022/12/09 10:50:33;;;;;;;42.05;16.63;;;4.00;86.50;;;;;;9176864;19;20014;-73
2022/12/09 10:53:45;;;;;;;36.20;15.57;;;4.00;86.40;;;;;;9173709;19;20018;-73
2022/12/09 10:57:05;;;;;;;38.17;15.57;;;4.00;86.40;;;;;;9170353;19;20013;-71
2022/12/09 11:00:23;;;;;;;41.65;16.40;;;4.00;86.30;;;;;;9179702;19;20467;-72
2022/12/09 11:03:34;;;;;;;36.55;16.33;;;4.10;86.40;;;;;;9176676;19;20486;-72
2022/12/09 11:06:41;;;;;;;41.28;16.48;;;4.10;86.40;;;;;;9179855;19;20006;-72
2022/12/09 11:09:49;;;;;;;35.80;17.38;;;4.10;86.30;;;;;;9177410;19;20014;-72
2022/12/09 11:12:57;;;;;;;35.40;15.88;;;4.20;86.30;;;;;;9179410;19;20022;-71
2022/12/09 11:16:03;;;;;;;43.28;16.77;;;4.20;86.20;;;;;;9175238;19;20014;-72
2022/12/09 11:19:15;;;;;;;38.58;17.88;;;4.20;86.20;;;;;;9173424;19;20010;-72
2022/12/09 11:22:27;;;;;;;39.15;17.08;;;4.20;86.10;;;;;;9179155;19;20083;-72
2022/12/09 11:25:36;;;;;;;40.90;16.17;;;4.30;86.20;;;;;;9177680;19;20010;-72
2022/12/09 11:28:41;;;;;;;40.42;18.48;;;4.30;86.10;;;;;;9177393;19;20030;-73
2022/12/09 11:31:46;;;;;;;40.35;17.65;;;4.30;86.10;;;;;;9178695;19;20013;-72
2022/12/09 11:34:50;;;;;;;41.63;18.20;;;4.30;86.10;;;;;;9175068;19;20011;-72
2022/12/09 11:37:56;;;;;;;39.30;17.30;;;4.30;86.00;;;;;;9173049;19;20006;-72
2022/12/09 11:41:13;;;;;;;41.72;18.50;;;4.40;86.00;;;;;;9172754;19;20537;-72
2022/12/09 11:44:26;;;;;;;40.03;16.58;;;4.40;85.90;;;;;;9167481;19;20022;-72
2022/12/09 11:47:34;;;;;;;43.97;18.83;;;4.40;86.00;;;;;;9164974;19;20511;-72
2022/12/09 11:50:58;;;;;;;39.72;16.92;;;4.40;85.90;;;;;;9164999;19;20048;-74
2022/12/09 11:54:12;;;;;;;36.55;16.77;;;4.50;85.90;;;;;;9168865;19;21623;-73
2022/12/09 11:57:27;;;;;;;38.58;16.10;;;4.50;85.90;;;;;;9169173;19;20364;-73
2022/12/09 12:00:38;;;;;;;37.20;15.75;;;4.50;85.80;;;;;;9170075;19;20026;-73
2022/12/09 12:03:46;;;;;;;32.90;14.95;;;4.60;85.80;;;;;;9169512;19;20015;-73
2022/12/09 12:06:55;;;;;;;34.15;14.82;;;4.60;85.80;;;;;;9165807;19;20786;-73
2022/12/09 12:09:59;;;;;;;31.42;15.40;;;4.60;85.70;;;;;;9167179;19;20379;-74
2022/12/09 12:13:15;;;;;;;38.97;14.82;;;4.60;85.60;;;;;;9176733;19;20018;-73
2022/12/09 12:16:30;;;;;;;29.42;13.23;;;4.60;85.60;;;;;;9168513;19;20006;-73
2022/12/09 12:19:44;;;;;;;30.85;14.32;;;4.70;85.60;;;;;;9171907;19;20656;-73
2022/12/09 12:23:07;;;;;;;34.90;16.10;;;4.70;85.60;;;;;;9176085;19;20014;-72
2022/12/09 12:26:18;;;;;;;33.55;15.32;;;4.70;85.50;;;;;;9179028;19;20360;-73
2022/12/09 12:29:34;;;;;;;35.75;15.20;;;4.70;85.40;;;;;;9183675;19;20028;-73
2022/12/09 12:32:49;;;;;;;32.35;14.95;;;4.70;85.40;;;;;;9180938;19;20042;-73
2022/12/09 12:36:22;;;;;;;38.63;16.05;;;4.70;85.30;;;;;;9185055;19;20412;-72
2022/12/09 12:39:37;;;;;;;31.55;15.30;;;4.70;85.30;;;;;;9181241;19;20031;-72
2022/12/09 12:46:25;;;;;;;33.42;14.60;;;4.80;85.30;;;;;;9181916;19;20062;-72
2022/12/09 12:50:03;;;;;;;43.25;14.85;;;4.80;85.30;;;;;;9184129;19;20052;-74
2022/12/09 12:53:19;;;;;;;49.00;14.55;;;4.80;85.20;;;;;;9180842;19;20589;-73
2022/12/09 12:56:28;;;;;;;36.60;15.43;;;4.80;85.30;;;;;;9177728;19;20006;-70
2022/12/09 12:59:38;;;;;;;30.00;14.82;;;4.80;85.20;;;;;;9175609;19;20467;-72
2022/12/09 13:02:48;;;;;;;34.03;13.95;;;4.90;85.20;;;;;;9181213;19;20118;-70
2022/12/09 13:05:59;;;;;;;30.92;13.77;;;4.90;85.10;;;;;;9178032;19;20022;-68
2022/12/09 13:09:10;;;;;;;31.25;13.88;;;4.90;85.00;;;;;;9183284;19;20123;-69
2022/12/09 13:12:17;;;;;;;29.67;13.95;;;4.90;85.00;;;;;;9176793;19;20479;-69
2022/12/09 13:15:30;;;;;;;30.88;13.43;;;4.90;84.90;;;;;;9171660;19;20390;-69
2022/12/09 13:18:39;;;;;;;35.33;15.15;;;4.90;84.80;;;;;;9176584;19;20018;-71
2022/12/09 13:21:45;;;;;;;29.42;14.15;;;4.90;84.70;;;;;;9174158;19;20024;-72
2022/12/09 13:24:55;;;;;;;39.25;15.10;;;4.90;84.80;;;;;;9172083;19;20027;-71
2022/12/09 13:28:09;;;;;;;31.88;15.40;;;4.90;84.80;;;;;;9175870;19;20029;-71
2022/12/09 13:31:22;;;;;;;34.10;15.10;;;4.90;84.80;;;;;;9182766;19;20022;-71
2022/12/09 13:34:36;;;;;;;35.65;14.40;;;4.90;84.80;;;;;;9180329;19;20366;-72
2022/12/09 13:37:59;;;;;;;41.08;15.60;;;4.90;85.40;;;;;;9180954;19;20010;-70
2022/12/09 13:42:51;;;;;;;38.00;16.00;;;4.90;84.70;;;;;;9181824;19;20071;-70
2022/12/09 13:45:06;;;;;;;31.73;14.55;;;4.90;84.70;;;;;;9173093;19;20015;-69
2022/12/09 13:48:39;;;;;;;35.88;15.23;;;4.90;84.80;;;;;;9170633;19;20021;-71
2022/12/09 13:51:50;;;;;;;37.13;15.10;;;4.90;84.70;;;;;;9175584;19;20023;-71
2022/12/09 13:54:54;;;;;;;33.28;15.50;;;4.90;84.70;;;;;;9174000;19;20026;-70
2022/12/09 13:58:08;;;;;;;43.72;17.00;;;4.90;84.70;;;;;;9171915;19;20021;-74
2022/12/09 14:01:18;;;;;;;;;;;4.90;84.70;;;;;;9169210;19;20018;-73
2022/12/09 14:04:26;;;;;;;32.40;15.90;;;4.90;84.70;;;;;;9179695;19;19914;-72
2022/12/09 14:07:37;;;;;;;33.33;14.23;;;4.90;84.70;;;;;;9170478;19;20014;-72
2022/12/09 14:10:44;;;;;;;34.67;16.25;;;4.90;84.70;;;;;;9174107;19;20024;-72
2022/12/09 14:13:48;;;;;;;37.22;14.77;;;4.80;84.60;;;;;;9178191;19;20082;-64
2022/12/09 14:16:53;;;;;;;29.48;14.13;;;4.90;84.70;;;;;;9166798;19;21026;-65
2022/12/09 14:20:16;;;;;;;32.25;15.13;;;4.90;84.80;;;;;;9172581;19;20485;-64
2022/12/09 14:23:22;;;;;;;44.00;17.13;;;4.90;84.70;;;;;;9168474;19;20091;-66
2022/12/09 14:26:36;;;;;;;34.38;15.32;;;4.90;84.70;;;;;;9169764;19;20485;-65
2022/12/09 14:29:52;;;;;;;32.85;15.90;;;4.90;84.60;;;;;;9169358;19;20045;-64
2022/12/09 14:32:57;;;;;;;27.67;12.63;;;4.90;84.60;;;;;;9158015;19;20749;-65
2022/12/09 14:36:05;;;;;;;24.80;12.40;;;4.90;84.60;;;;;;9163094;19;20014;-67
2022/12/09 14:39:20;;;;;;;26.23;12.23;;;4.80;84.50;;;;;;9157152;19;20015;-64
2022/12/09 14:42:37;;;;;;;21.60;10.68;;;4.80;84.50;;;;;;9171295;19;20021;-65
2022/12/09 14:45:49;;;;;;;24.02;11.85;;;4.80;84.40;;;;;;9166690;19;20022;-64
2022/12/09 14:48:57;;;;;;;;;;;4.80;84.50;;;;;;9172206;19;20022;-65
2022/12/09 14:52:04;;;;;;;21.83;10.18;;;4.80;84.50;;;;;;9170383;19;19926;-67
2022/12/09 14:55:17;;;;;;;27.27;11.02;;;4.80;84.40;;;;;;9170234;19;20018;-68
2022/12/09 14:58:23;;;;;;;28.67;11.70;;;4.80;84.40;;;;;;9172667;19;20011;-68
2022/12/09 15:01:27;;;;;;;25.85;11.15;;;4.80;84.40;;;;;;9171363;19;20039;-69
2022/12/09 15:04:34;;;;;;;24.52;12.32;;;4.70;84.40;;;;;;9168294;19;20026;-67
2022/12/09 15:07:45;;;;;;;25.45;12.63;;;4.70;84.40;;;;;;9167381;19;20058;-71
2022/12/09 15:10:51;;;;;;;24.95;10.95;;;4.80;84.40;;;;;;9166835;19;20047;-69
2022/12/09 15:14:25;;;;;;;27.58;12.60;;;4.70;84.30;;;;;;9170827;19;20019;-64
2022/12/09 15:17:25;;;;;;;26.90;12.20;;;4.70;84.30;;;;;;9160592;19;20025;-68
2022/12/09 15:20:31;;;;;;;27.98;12.00;;;4.70;84.30;;;;;;9170998;19;20015;-65
2022/12/09 15:23:38;;;;;;;28.98;13.07;;;4.70;84.30;;;;;;9173626;19;20483;-66
2022/12/09 15:26:44;;;;;;;27.65;13.40;;;4.70;84.30;;;;;;9173810;19;20063;-66
2022/12/09 15:29:47;;;;;;;29.88;13.10;;;4.70;84.20;;;;;;9174076;19;20047;-65
2022/12/09 15:32:51;;;;;;;;;;;4.70;84.20;;;;;;9174179;19;20042;-66
2022/12/09 15:35:59;;;;;;;22.38;10.05;;;4.70;84.20;;;;;;9169811;19;19922;-66
2022/12/09 15:39:06;;;;;;;31.05;14.15;;;4.70;84.30;;;;;;9175828;19;20014;-65
2022/12/09 15:42:16;;;;;;;28.30;13.25;;;4.60;84.20;;;;;;9177497;19;20023;-66
2022/12/09 15:45:23;;;;;;;34.25;13.68;;;4.60;84.20;;;;;;9172783;19;20022;-65
2022/12/09 15:48:31;;;;;;;34.85;14.07;;;4.60;84.20;;;;;;9177133;19;20094;-64
2022/12/09 15:51:37;;;;;;;32.30;14.68;;;4.60;84.20;;;;;;9176502;19;20107;-62
2022/12/09 15:54:44;;;;;;;31.23;13.93;;;4.60;84.20;;;;;;9176295;19;20010;-63
2022/12/09 15:57:52;;;;;;;28.70;13.43;;;4.60;84.20;;;;;;9178480;19;20011;-64
2022/12/09 16:00:56;;;;;;;29.23;13.23;;;4.60;84.20;;;;;;9178387;19;20010;-63
2022/12/09 16:04:02;;;;;;;30.00;13.82;;;4.60;84.20;;;;;;9177341;19;20038;-62
2022/12/09 16:07:06;;;;;;;28.25;13.20;;;4.60;84.20;;;;;;9178083;19;20007;-63
2022/12/09 16:10:13;;;;;;;30.58;13.00;;;4.50;84.10;;;;;;9178145;19;20479;-63
2022/12/09 16:13:20;;;;;;;33.95;13.32;;;4.50;84.10;;;;;;9177775;19;20014;-63